createdAt,value
2018-02-11T17:04:10.434Z,990.26
2018-02-11T17:05:10.446Z,990.33
2018-02-11T17:06:10.458Z,990.35
2018-02-11T17:07:10.472Z,990.38
2018-02-11T17:08:10.487Z,990.37
2018-02-11T17:09:10.502Z,990.4
2018-02-11T17:10:10.509Z,990.44
2018-02-11T17:11:10.523Z,990.39
2018-02-11T17:12:10.536Z,990.41
2018-02-11T17:13:10.548Z,990.4
2018-02-11T17:14:10.560Z,990.39
2018-02-11T17:15:10.577Z,990.39
2018-02-11T17:16:10.588Z,990.33
2018-02-11T17:17:10.602Z,990.35
2018-02-11T17:18:10.613Z,990.34
2018-02-11T17:19:10.624Z,990.33
2018-02-11T17:20:10.637Z,990.33
2018-02-11T17:21:10.649Z,990.32
2018-02-11T17:22:10.662Z,990.29
2018-02-11T17:23:10.675Z,990.29
2018-02-11T17:24:10.688Z,990.28
2018-02-11T17:25:10.700Z,990.27
2018-02-11T17:26:10.714Z,990.29
2018-02-11T17:27:10.727Z,990.31
2018-02-11T17:28:10.738Z,990.32
2018-02-11T17:29:10.756Z,990.36
2018-02-11T17:30:10.765Z,990.34
2018-02-11T17:31:10.778Z,990.35
2018-02-11T17:32:10.788Z,990.38
2018-02-11T17:33:10.804Z,990.34
2018-02-11T17:34:10.815Z,990.39
2018-02-11T17:35:10.828Z,990.41
2018-02-11T17:36:10.866Z,990.44
2018-02-11T17:37:10.851Z,990.41
2018-02-11T17:38:10.865Z,990.43
2018-02-11T17:39:10.876Z,990.46
2018-02-11T17:40:10.889Z,990.43
2018-02-11T17:41:10.905Z,990.45
2018-02-11T17:42:10.921Z,990.4
2018-02-11T17:43:10.929Z,990.45
2018-02-11T17:44:10.940Z,990.45
2018-02-11T17:45:10.952Z,990.46
2018-02-11T17:46:10.965Z,990.46
2018-02-11T17:47:10.977Z,990.45
2018-02-11T17:48:10.991Z,990.47
2018-02-11T17:49:11.053Z,990.47
2018-02-11T17:50:11.018Z,990.47
2018-02-11T17:51:11.028Z,990.43
2018-02-11T17:52:11.041Z,990.52
2018-02-11T17:53:11.055Z,990.51
2018-02-11T17:54:11.065Z,990.51
2018-02-11T17:55:11.113Z,990.49
2018-02-11T17:56:11.091Z,990.45
2018-02-11T17:57:11.103Z,990.41
2018-02-11T17:58:11.117Z,990.45
2018-02-11T17:59:11.128Z,990.47
2018-02-11T18:00:11.141Z,990.48
2018-02-11T18:01:11.153Z,990.49
2018-02-11T18:02:11.166Z,990.44
2018-02-11T18:03:11.178Z,990.41
2018-02-11T18:04:11.193Z,990.47
2018-02-11T18:05:11.208Z,990.45
2018-02-11T18:06:11.216Z,990.5
2018-02-11T18:07:11.229Z,990.48
2018-02-11T18:08:11.240Z,990.5
2018-02-11T18:09:11.253Z,990.51
2018-02-11T18:10:11.266Z,990.51
2018-02-11T18:11:11.282Z,990.52
2018-02-11T18:12:11.291Z,990.56
2018-02-11T18:13:11.303Z,990.58
2018-02-11T18:14:11.317Z,990.61
2018-02-11T18:15:11.328Z,990.6
2018-02-11T18:16:11.342Z,990.63
2018-02-11T18:17:11.353Z,990.62
2018-02-11T18:18:11.366Z,990.6
2018-02-11T18:19:11.377Z,990.59
2018-02-11T18:20:11.391Z,990.57
2018-02-11T18:21:11.405Z,990.56
2018-02-11T18:22:11.415Z,990.51
2018-02-11T18:23:11.429Z,990.5
2018-02-11T18:24:11.441Z,990.48
2018-02-11T18:25:11.452Z,990.51
2018-02-11T18:26:11.465Z,990.6
2018-02-11T18:27:11.476Z,990.54
2018-02-11T18:28:11.490Z,990.55
2018-02-11T18:29:11.509Z,990.59
2018-02-11T18:30:11.514Z,990.58
2018-02-11T18:31:11.526Z,990.58
2018-02-11T18:32:11.539Z,990.6
2018-02-11T18:33:11.552Z,990.59
2018-02-11T18:34:11.564Z,990.61
2018-02-11T18:35:11.576Z,990.64
2018-02-11T18:36:11.589Z,990.67
2018-02-11T18:37:11.603Z,990.71
2018-02-11T18:38:11.614Z,990.73
2018-02-11T18:39:11.627Z,990.74
2018-02-11T18:40:11.643Z,990.74
2018-02-11T18:41:11.653Z,990.73
2018-02-11T18:42:11.664Z,990.78
2018-02-11T18:43:11.696Z,990.76
2018-02-11T18:44:11.689Z,990.74
2018-02-11T18:45:11.702Z,990.8
2018-02-11T18:46:11.715Z,990.79
2018-02-11T18:47:11.726Z,990.79
2018-02-11T18:48:11.737Z,990.87
2018-02-11T18:49:11.749Z,990.86
2018-02-11T18:50:11.764Z,990.83
2018-02-11T18:51:11.776Z,990.87
2018-02-11T18:52:11.787Z,990.88
2018-02-11T18:53:11.799Z,990.86
2018-02-11T18:54:11.812Z,990.89
2018-02-11T18:55:11.824Z,990.87
2018-02-11T18:56:11.836Z,990.91
2018-02-11T18:57:11.848Z,990.9
2018-02-11T18:58:11.861Z,990.92
2018-02-11T18:59:11.872Z,990.86
2018-02-11T19:00:11.885Z,990.88
2018-02-11T19:01:11.903Z,990.83
2018-02-11T19:02:11.910Z,990.88
2018-02-11T19:03:11.922Z,990.8
2018-02-11T19:04:11.935Z,990.86
2018-02-11T19:05:11.947Z,990.84
2018-02-11T19:06:11.959Z,990.82
2018-02-11T19:07:11.971Z,990.86
2018-02-11T19:08:11.984Z,990.84
2018-02-11T19:09:11.996Z,990.83
2018-02-11T19:10:12.008Z,990.84
2018-02-11T19:11:12.020Z,990.83
2018-02-11T19:12:12.033Z,990.8
2018-02-11T19:13:12.045Z,990.82
2018-02-11T19:14:12.057Z,990.82
2018-02-11T19:15:12.070Z,990.81
2018-02-11T19:16:12.084Z,990.8
2018-02-11T19:17:12.094Z,990.76
2018-02-11T19:18:12.106Z,990.76
2018-02-11T19:19:12.117Z,990.77
2018-02-11T19:20:12.130Z,990.78
2018-02-11T19:21:12.142Z,990.8
2018-02-11T19:22:12.155Z,990.82
2018-02-11T19:23:12.168Z,990.8
2018-02-11T19:24:12.179Z,990.79
2018-02-11T19:25:12.191Z,990.75
2018-02-11T19:26:12.204Z,990.76
2018-02-11T19:27:12.218Z,990.77
2018-02-11T19:28:12.229Z,990.81
2018-02-11T19:29:12.248Z,990.75
2018-02-11T19:30:12.252Z,990.78
2018-02-11T19:31:12.264Z,990.76
2018-02-11T19:32:12.276Z,990.8
2018-02-11T19:33:12.289Z,990.85
2018-02-11T19:34:12.303Z,990.87
2018-02-11T19:35:12.314Z,990.84
2018-02-11T19:36:12.326Z,990.85
2018-02-11T19:37:12.337Z,990.84
2018-02-11T19:38:12.352Z,990.86
2018-02-11T19:39:12.364Z,990.85
2018-02-11T19:40:12.384Z,990.87
2018-02-11T19:41:12.387Z,990.86
2018-02-11T19:42:12.399Z,990.83
2018-02-11T19:43:12.410Z,990.89
2018-02-11T19:44:12.425Z,990.9
2018-02-11T19:45:12.586Z,990.87
2018-02-11T19:46:12.448Z,990.9
2018-02-11T19:47:12.458Z,990.94
2018-02-11T19:48:12.472Z,990.97
2018-02-11T19:49:12.492Z,990.96
2018-02-11T19:50:12.571Z,991.01
2018-02-11T19:51:12.513Z,991.02
2018-02-11T19:52:12.520Z,991.05
2018-02-11T19:53:12.535Z,991.11
2018-02-11T19:54:12.544Z,991.09
2018-02-11T19:55:12.607Z,991.13
2018-02-11T19:56:12.577Z,991.08
2018-02-11T19:57:12.580Z,991.11
2018-02-11T19:58:12.593Z,991.17
2018-02-11T19:59:12.605Z,991.12
2018-02-11T20:00:12.767Z,991.13
2018-02-11T20:01:12.630Z,991.16
2018-02-11T20:02:12.641Z,991.16
2018-02-11T20:03:12.653Z,991.14
2018-02-11T20:04:12.665Z,991.16
2018-02-11T20:05:12.728Z,991.14
2018-02-11T20:06:12.689Z,991.14
2018-02-11T20:07:12.702Z,991.19
2018-02-11T20:08:12.714Z,991.18
2018-02-11T20:09:12.729Z,991.17
2018-02-11T20:10:12.737Z,991.22
2018-02-11T20:11:12.758Z,991.19
2018-02-11T20:12:12.762Z,991.19
2018-02-11T20:13:12.774Z,991.22
2018-02-11T20:14:12.787Z,991.21
2018-02-11T20:15:12.799Z,991.22
2018-02-11T20:16:12.812Z,991.24
2018-02-11T20:17:12.824Z,991.28
2018-02-11T20:18:12.835Z,991.35
2018-02-11T20:19:12.848Z,991.4
2018-02-11T20:20:12.860Z,991.37
2018-02-11T20:21:12.874Z,991.31
2018-02-11T20:22:12.887Z,991.39
2018-02-11T20:23:12.927Z,991.4
2018-02-11T20:24:12.910Z,991.46
2018-02-11T20:25:12.920Z,991.49
2018-02-11T20:26:12.933Z,991.45
2018-02-11T20:27:12.944Z,991.45
2018-02-11T20:28:12.956Z,991.45
2018-02-11T20:29:12.969Z,991.41
2018-02-11T20:30:12.980Z,991.44
2018-02-11T20:31:12.992Z,991.46
2018-02-11T20:32:13.005Z,991.45
2018-02-11T20:33:13.018Z,991.49
2018-02-11T20:34:13.028Z,991.49
2018-02-11T20:35:13.054Z,991.49
2018-02-11T20:36:13.053Z,991.47
2018-02-11T20:37:13.065Z,991.51
2018-02-11T20:38:13.077Z,991.53
2018-02-11T20:39:13.089Z,991.57
2018-02-11T20:40:13.101Z,991.57
2018-02-11T20:41:13.121Z,991.58
2018-02-11T20:42:13.125Z,991.58
2018-02-11T20:43:13.149Z,991.62
2018-02-11T20:44:13.150Z,991.64
2018-02-11T20:45:13.161Z,991.67
2018-02-11T20:46:13.174Z,991.63
2018-02-11T20:47:13.186Z,991.63
2018-02-11T20:48:13.198Z,991.65
2018-02-11T20:49:13.209Z,991.67
2018-02-11T20:50:13.226Z,991.72
2018-02-11T20:51:13.233Z,991.71
2018-02-11T20:52:13.246Z,991.74
2018-02-11T20:53:13.257Z,991.74
2018-02-11T20:54:13.269Z,991.77
2018-02-11T20:55:13.283Z,991.79
2018-02-11T20:56:13.294Z,991.77
2018-02-11T20:57:13.305Z,991.83
2018-02-11T20:58:13.324Z,991.83
2018-02-11T20:59:13.331Z,991.86
2018-02-11T21:00:13.348Z,991.87
2018-02-11T21:01:13.354Z,991.89
2018-02-11T21:02:13.366Z,991.9
2018-02-11T21:03:13.379Z,991.88
2018-02-11T21:04:13.390Z,991.92
2018-02-11T21:05:13.402Z,991.92
2018-02-11T21:06:13.459Z,991.94
2018-02-11T21:07:13.427Z,991.92
2018-02-11T21:08:13.460Z,991.92
2018-02-11T21:09:13.451Z,991.94
2018-02-11T21:10:13.464Z,991.96
2018-02-11T21:11:13.478Z,991.97
2018-02-11T21:12:13.492Z,991.97
2018-02-11T21:13:13.499Z,991.99
2018-02-11T21:14:13.515Z,991.98
2018-02-11T21:15:13.523Z,992.01
2018-02-11T21:16:13.534Z,992.03
2018-02-11T21:17:13.548Z,992
2018-02-11T21:18:13.560Z,992
2018-02-11T21:19:13.572Z,991.99
2018-02-11T21:20:13.583Z,992
2018-02-11T21:21:13.595Z,992.01
2018-02-11T21:22:13.607Z,992.04
2018-02-11T21:23:13.619Z,992.03
2018-02-11T21:24:13.632Z,992.03
2018-02-11T21:25:13.644Z,991.98
2018-02-11T21:26:13.656Z,992
2018-02-11T21:27:13.667Z,992.07
2018-02-11T21:28:13.682Z,992.02
2018-02-11T21:29:13.696Z,992.03
2018-02-11T21:30:13.704Z,992.03
2018-02-11T21:31:13.716Z,991.98
2018-02-11T21:32:13.728Z,992
2018-02-11T21:33:13.740Z,992.01
2018-02-11T21:34:13.753Z,992.06
2018-02-11T21:35:13.765Z,992.06
2018-02-11T21:36:13.784Z,992.04
2018-02-11T21:37:13.788Z,992.04
2018-02-11T21:38:13.801Z,992.12
2018-02-11T21:39:13.814Z,992.09
2018-02-11T21:40:13.825Z,992.11
2018-02-11T21:41:13.837Z,992.12
2018-02-11T21:42:13.868Z,992.12
2018-02-11T21:43:13.862Z,992.1
2018-02-11T21:44:13.874Z,992.12
2018-02-11T21:45:13.886Z,992.11
2018-02-11T21:46:13.898Z,992.14
2018-02-11T21:47:13.910Z,992.14
2018-02-11T21:48:13.923Z,992.1
2018-02-11T21:49:13.934Z,992.11
2018-02-11T21:50:13.959Z,992.15
2018-02-11T21:51:13.958Z,992.16
2018-02-11T21:52:13.970Z,992.17
2018-02-11T21:53:13.983Z,992.19
2018-02-11T21:54:13.995Z,992.2
2018-02-11T21:55:14.006Z,992.19
2018-02-11T21:56:14.018Z,992.21
2018-02-11T21:57:14.033Z,992.22
2018-02-11T21:58:14.043Z,992.26
2018-02-11T21:59:14.056Z,992.18
2018-02-11T22:00:14.069Z,992.24
2018-02-11T22:01:14.130Z,992.26
2018-02-11T22:02:14.096Z,992.24
2018-02-11T22:03:14.103Z,992.23
2018-02-11T22:04:14.116Z,992.26
2018-02-11T22:05:14.128Z,992.25
2018-02-11T22:06:14.139Z,992.24
2018-02-11T22:07:14.151Z,992.32
2018-02-11T22:08:14.164Z,992.31
2018-02-11T22:09:14.175Z,992.35
2018-02-11T22:10:14.187Z,992.3
2018-02-11T22:11:14.251Z,992.31
2018-02-11T22:12:14.213Z,992.36
2018-02-11T22:13:14.223Z,992.36
2018-02-11T22:14:14.236Z,992.37
2018-02-11T22:15:14.248Z,992.38
2018-02-11T22:16:14.412Z,992.39
2018-02-11T22:17:14.273Z,992.41
2018-02-11T22:18:14.284Z,992.4
2018-02-11T22:19:14.296Z,992.46
2018-02-11T22:20:14.307Z,992.42
2018-02-11T22:21:14.370Z,992.44
2018-02-11T22:22:14.334Z,992.46
2018-02-11T22:23:14.344Z,992.47
2018-02-11T22:24:14.355Z,992.46
2018-02-11T22:25:14.368Z,992.48
2018-02-11T22:26:14.430Z,992.5
2018-02-11T22:27:14.394Z,992.52
2018-02-11T22:28:14.405Z,992.53
2018-02-11T22:29:14.424Z,992.55
2018-02-11T22:30:14.429Z,992.54
2018-02-11T22:31:14.491Z,992.53
2018-02-11T22:32:14.453Z,992.58
2018-02-11T22:33:14.467Z,992.57
2018-02-11T22:34:14.477Z,992.55
2018-02-11T22:35:14.488Z,992.56
2018-02-11T22:36:14.550Z,992.52
2018-02-11T22:37:14.514Z,992.54
2018-02-11T22:38:14.526Z,992.55
2018-02-11T22:39:14.538Z,992.61
2018-02-11T22:40:14.550Z,992.55
2018-02-11T22:41:14.612Z,992.56
2018-02-11T22:42:14.574Z,992.59
2018-02-11T22:43:14.588Z,992.63
2018-02-11T22:44:14.597Z,992.67
2018-02-11T22:45:14.609Z,992.63
2018-02-11T22:46:14.671Z,992.68
2018-02-11T22:47:14.633Z,992.67
2018-02-11T22:48:14.645Z,992.7
2018-02-11T22:49:14.658Z,992.68
2018-02-11T22:50:14.669Z,992.69
2018-02-11T22:51:14.685Z,992.67
2018-02-11T22:52:14.695Z,992.7
2018-02-11T22:53:14.705Z,992.68
2018-02-11T22:54:14.718Z,992.7
2018-02-11T22:55:14.733Z,992.73
2018-02-11T22:56:14.792Z,992.74
2018-02-11T22:57:14.754Z,992.74
2018-02-11T22:58:14.770Z,992.81
2018-02-11T22:59:14.779Z,992.81
2018-02-11T23:00:14.790Z,992.81
2018-02-11T23:01:14.852Z,992.8
2018-02-11T23:02:14.815Z,992.85
2018-02-11T23:03:14.827Z,992.84
2018-02-11T23:04:14.838Z,992.87
2018-02-11T23:05:14.849Z,992.9
2018-02-11T23:06:14.912Z,992.88
2018-02-11T23:07:14.879Z,992.88
2018-02-11T23:08:14.886Z,992.91
2018-02-11T23:09:14.898Z,992.89
2018-02-11T23:10:14.910Z,992.91
2018-02-11T23:11:14.922Z,992.93
2018-02-11T23:12:14.933Z,992.99
2018-02-11T23:13:14.946Z,992.99
2018-02-11T23:14:14.959Z,993
2018-02-11T23:15:14.968Z,992.98
2018-02-11T23:16:15.032Z,992.99
2018-02-11T23:17:14.994Z,992.94
2018-02-11T23:18:15.007Z,992.93
2018-02-11T23:19:15.018Z,992.9
2018-02-11T23:20:15.029Z,992.94
2018-02-11T23:21:15.092Z,992.96
2018-02-11T23:22:15.054Z,992.97
2018-02-11T23:23:15.066Z,993.01
2018-02-11T23:24:15.079Z,993
2018-02-11T23:25:15.091Z,992.98
2018-02-11T23:26:15.151Z,993.01
2018-02-11T23:27:15.114Z,993.01
2018-02-11T23:28:15.127Z,992.98
2018-02-11T23:29:15.140Z,993.01
2018-02-11T23:30:15.150Z,993.03
2018-02-11T23:31:15.162Z,993
2018-02-11T23:32:15.174Z,992.98
2018-02-11T23:33:15.185Z,993.01
2018-02-11T23:34:15.197Z,993.02
2018-02-11T23:35:15.210Z,993.02
2018-02-11T23:36:15.275Z,993.05
2018-02-11T23:37:15.233Z,993.07
2018-02-11T23:38:15.245Z,993.04
2018-02-11T23:39:15.257Z,993.05
2018-02-11T23:40:15.269Z,993.04
2018-02-11T23:41:15.280Z,993.06
2018-02-11T23:42:15.292Z,993.07
2018-02-11T23:43:15.305Z,993.09
2018-02-11T23:44:15.320Z,993.08
2018-02-11T23:45:15.329Z,993.08
2018-02-11T23:46:15.340Z,993.06
2018-02-11T23:47:15.353Z,993.11
2018-02-11T23:48:15.364Z,993.14
2018-02-11T23:49:15.376Z,993.14
2018-02-11T23:50:15.389Z,993.16
2018-02-11T23:51:15.400Z,993.17
2018-02-11T23:52:15.413Z,993.16
2018-02-11T23:53:15.424Z,993.17
2018-02-11T23:54:15.437Z,993.16
2018-02-11T23:55:15.446Z,993.13
2018-02-11T23:56:15.459Z,993.11
2018-02-11T23:57:15.471Z,993.13
2018-02-11T23:58:15.483Z,993.13
2018-02-11T23:59:15.495Z,993.13
